sensor_id;sensor_type;location;lat;lon;timestamp;P1;durP1;ratioP1;P2;durP2;ratioP2
73113;SDS011;61301;51.956;5.876;2023-08-24T00:00:58;3.45;;;1.23;;
73113;SDS011;61301;51.956;5.876;2023-08-24T00:03:24;1.63;;;0.85;;
73113;SDS011;61301;51.956;5.876;2023-08-24T00:05:51;1.90;;;1.35;;
73113;SDS011;61301;51.956;5.876;2023-08-24T00:08:17;2.42;;;1.20;;
73113;SDS011;61301;51.956;5.876;2023-08-24T00:10:43;1.75;;;1.50;;
73113;SDS011;61301;51.956;5.876;2023-08-24T00:13:13;2.60;;;1.58;;
73113;SDS011;61301;51.956;5.876;2023-08-24T00:15:39;2.13;;;1.20;;
73113;SDS011;61301;51.956;5.876;2023-08-24T00:18:06;2.05;;;1.25;;
73113;SDS011;61301;51.956;5.876;2023-08-24T00:20:32;2.95;;;1.27;;
73113;SDS011;61301;51.956;5.876;2023-08-24T00:22:59;1.10;;;0.95;;
73113;SDS011;61301;51.956;5.876;2023-08-24T00:25:25;1.50;;;0.90;;
73113;SDS011;61301;51.956;5.876;2023-08-24T00:27:55;2.15;;;1.13;;
73113;SDS011;61301;51.956;5.876;2023-08-24T00:30:21;3.92;;;1.40;;
73113;SDS011;61301;51.956;5.876;2023-08-24T00:32:49;4.50;;;1.40;;
73113;SDS011;61301;51.956;5.876;2023-08-24T00:35:16;3.60;;;1.30;;
73113;SDS011;61301;51.956;5.876;2023-08-24T00:37:41;3.35;;;1.77;;
73113;SDS011;61301;51.956;5.876;2023-08-24T00:40:08;4.13;;;1.60;;
73113;SDS011;61301;51.956;5.876;2023-08-24T00:42:38;2.60;;;1.27;;
73113;SDS011;61301;51.956;5.876;2023-08-24T00:45:08;2.20;;;1.48;;
73113;SDS011;61301;51.956;5.876;2023-08-24T00:47:39;1.75;;;1.27;;
73113;SDS011;61301;51.956;5.876;2023-08-24T00:50:08;3.77;;;1.90;;
73113;SDS011;61301;51.956;5.876;2023-08-24T00:52:38;4.97;;;1.90;;
73113;SDS011;61301;51.956;5.876;2023-08-24T00:55:06;4.72;;;2.63;;
73113;SDS011;61301;51.956;5.876;2023-08-24T00:57:33;6.55;;;2.58;;
73113;SDS011;61301;51.956;5.876;2023-08-24T01:00:02;5.93;;;2.22;;
73113;SDS011;61301;51.956;5.876;2023-08-24T01:02:31;3.50;;;2.00;;
73113;SDS011;61301;51.956;5.876;2023-08-24T01:05:01;3.30;;;2.13;;
73113;SDS011;61301;51.956;5.876;2023-08-24T01:07:28;3.05;;;1.90;;
73113;SDS011;61301;51.956;5.876;2023-08-24T01:09:55;3.50;;;1.90;;
73113;SDS011;61301;51.956;5.876;2023-08-24T01:12:26;2.92;;;1.65;;
73113;SDS011;61301;51.956;5.876;2023-08-24T01:15:07;1.80;;;1.40;;
73113;SDS011;61301;51.956;5.876;2023-08-24T01:17:38;2.45;;;1.80;;
73113;SDS011;61301;51.956;5.876;2023-08-24T01:20:09;2.05;;;1.30;;
73113;SDS011;61301;51.956;5.876;2023-08-24T01:25:08;3.65;;;2.10;;
73113;SDS011;61301;51.956;5.876;2023-08-24T01:27:38;3.95;;;2.17;;
73113;SDS011;61301;51.956;5.876;2023-08-24T01:30:06;3.03;;;2.03;;
73113;SDS011;61301;51.956;5.876;2023-08-24T01:32:33;3.33;;;1.83;;
73113;SDS011;61301;51.956;5.876;2023-08-24T01:35:02;3.80;;;2.33;;
73113;SDS011;61301;51.956;5.876;2023-08-24T01:37:30;5.15;;;3.22;;
73113;SDS011;61301;51.956;5.876;2023-08-24T01:43:27;2.70;;;2.47;;
73113;SDS011;61301;51.956;5.876;2023-08-24T01:45:31;8.25;;;4.03;;
73113;SDS011;61301;51.956;5.876;2023-08-24T01:47:59;5.88;;;3.75;;
73113;SDS011;61301;51.956;5.876;2023-08-24T01:50:28;6.03;;;4.13;;
73113;SDS011;61301;51.956;5.876;2023-08-24T01:52:58;6.13;;;3.30;;
73113;SDS011;61301;51.956;5.876;2023-08-24T01:55:25;5.15;;;3.50;;
73113;SDS011;61301;51.956;5.876;2023-08-24T01:57:51;3.83;;;3.03;;
73113;SDS011;61301;51.956;5.876;2023-08-24T02:00:17;4.68;;;2.72;;
73113;SDS011;61301;51.956;5.876;2023-08-24T02:02:46;4.28;;;3.42;;
73113;SDS011;61301;51.956;5.876;2023-08-24T02:05:12;3.75;;;2.80;;
73113;SDS011;61301;51.956;5.876;2023-08-24T02:07:39;7.22;;;3.92;;
73113;SDS011;61301;51.956;5.876;2023-08-24T02:10:08;4.15;;;3.25;;
73113;SDS011;61301;51.956;5.876;2023-08-24T02:12:34;4.03;;;2.90;;
73113;SDS011;61301;51.956;5.876;2023-08-24T02:15:00;5.88;;;3.55;;
73113;SDS011;61301;51.956;5.876;2023-08-24T02:17:26;5.07;;;3.65;;
73113;SDS011;61301;51.956;5.876;2023-08-24T02:19:52;3.15;;;2.40;;
73113;SDS011;61301;51.956;5.876;2023-08-24T02:22:19;2.83;;;2.15;;
73113;SDS011;61301;51.956;5.876;2023-08-24T02:24:44;8.50;;;2.92;;
73113;SDS011;61301;51.956;5.876;2023-08-24T02:27:10;4.05;;;2.70;;
73113;SDS011;61301;51.956;5.876;2023-08-24T02:29:36;4.60;;;3.28;;
73113;SDS011;61301;51.956;5.876;2023-08-24T02:32:03;2.13;;;1.73;;
73113;SDS011;61301;51.956;5.876;2023-08-24T02:34:30;4.47;;;3.10;;
73113;SDS011;61301;51.956;5.876;2023-08-24T02:36:57;4.30;;;2.88;;
73113;SDS011;61301;51.956;5.876;2023-08-24T02:39:23;3.63;;;2.90;;
73113;SDS011;61301;51.956;5.876;2023-08-24T02:41:49;4.15;;;3.65;;
73113;SDS011;61301;51.956;5.876;2023-08-24T02:44:15;5.72;;;3.63;;
73113;SDS011;61301;51.956;5.876;2023-08-24T02:46:44;7.15;;;3.67;;
73113;SDS011;61301;51.956;5.876;2023-08-24T02:49:10;5.30;;;3.47;;
73113;SDS011;61301;51.956;5.876;2023-08-24T02:51:36;6.28;;;4.25;;
73113;SDS011;61301;51.956;5.876;2023-08-24T02:54:02;7.13;;;5.07;;
73113;SDS011;61301;51.956;5.876;2023-08-24T02:56:28;7.53;;;5.65;;
73113;SDS011;61301;51.956;5.876;2023-08-24T02:58:54;5.88;;;4.18;;
73113;SDS011;61301;51.956;5.876;2023-08-24T03:01:20;3.42;;;2.50;;
73113;SDS011;61301;51.956;5.876;2023-08-24T03:03:46;4.60;;;3.92;;
73113;SDS011;61301;51.956;5.876;2023-08-24T03:06:12;3.75;;;2.92;;
73113;SDS011;61301;51.956;5.876;2023-08-24T03:08:39;4.53;;;3.25;;
73113;SDS011;61301;51.956;5.876;2023-08-24T03:11:06;6.63;;;4.93;;
73113;SDS011;61301;51.956;5.876;2023-08-24T03:13:35;4.85;;;3.55;;
73113;SDS011;61301;51.956;5.876;2023-08-24T03:16:03;6.28;;;5.22;;
73113;SDS011;61301;51.956;5.876;2023-08-24T03:18:30;10.43;;;6.53;;
73113;SDS011;61301;51.956;5.876;2023-08-24T03:20:56;7.97;;;4.53;;
73113;SDS011;61301;51.956;5.876;2023-08-24T03:23:22;5.07;;;3.63;;
73113;SDS011;61301;51.956;5.876;2023-08-24T03:25:48;8.23;;;6.05;;
73113;SDS011;61301;51.956;5.876;2023-08-24T03:28:14;7.25;;;4.05;;
73113;SDS011;61301;51.956;5.876;2023-08-24T03:30:45;10.30;;;5.35;;
73113;SDS011;61301;51.956;5.876;2023-08-24T03:33:16;5.50;;;4.15;;
73113;SDS011;61301;51.956;5.876;2023-08-24T03:35:42;6.40;;;3.95;;
73113;SDS011;61301;51.956;5.876;2023-08-24T03:38:08;4.10;;;3.67;;
73113;SDS011;61301;51.956;5.876;2023-08-24T03:40:34;5.88;;;4.70;;
73113;SDS011;61301;51.956;5.876;2023-08-24T03:43:01;6.47;;;4.57;;
73113;SDS011;61301;51.956;5.876;2023-08-24T03:45:28;6.95;;;4.30;;
73113;SDS011;61301;51.956;5.876;2023-08-24T03:47:54;6.07;;;4.45;;
73113;SDS011;61301;51.956;5.876;2023-08-24T03:50:20;3.75;;;3.35;;
73113;SDS011;61301;51.956;5.876;2023-08-24T03:52:48;6.85;;;4.82;;
73113;SDS011;61301;51.956;5.876;2023-08-24T03:55:15;7.57;;;4.97;;
73113;SDS011;61301;51.956;5.876;2023-08-24T03:57:43;7.15;;;5.22;;
73113;SDS011;61301;51.956;5.876;2023-08-24T04:00:09;7.78;;;6.32;;
73113;SDS011;61301;51.956;5.876;2023-08-24T04:02:41;10.05;;;6.72;;
73113;SDS011;61301;51.956;5.876;2023-08-24T04:05:10;10.05;;;6.13;;
73113;SDS011;61301;51.956;5.876;2023-08-24T04:07:39;10.00;;;5.63;;
73113;SDS011;61301;51.956;5.876;2023-08-24T04:10:07;7.68;;;5.70;;
73113;SDS011;61301;51.956;5.876;2023-08-24T04:12:33;6.35;;;4.63;;
73113;SDS011;61301;51.956;5.876;2023-08-24T04:15:00;6.97;;;4.90;;
73113;SDS011;61301;51.956;5.876;2023-08-24T04:17:26;6.22;;;5.55;;
73113;SDS011;61301;51.956;5.876;2023-08-24T04:19:52;8.80;;;5.40;;
73113;SDS011;61301;51.956;5.876;2023-08-24T04:22:19;9.68;;;5.50;;
73113;SDS011;61301;51.956;5.876;2023-08-24T04:24:45;9.40;;;7.28;;
73113;SDS011;61301;51.956;5.876;2023-08-24T04:27:11;7.57;;;5.65;;
73113;SDS011;61301;51.956;5.876;2023-08-24T04:29:37;8.77;;;6.50;;
73113;SDS011;61301;51.956;5.876;2023-08-24T04:32:03;8.13;;;6.15;;
73113;SDS011;61301;51.956;5.876;2023-08-24T04:34:30;6.07;;;4.43;;
73113;SDS011;61301;51.956;5.876;2023-08-24T04:36:56;5.65;;;4.40;;
73113;SDS011;61301;51.956;5.876;2023-08-24T04:39:22;6.90;;;3.83;;
73113;SDS011;61301;51.956;5.876;2023-08-24T04:41:48;4.93;;;4.00;;
73113;SDS011;61301;51.956;5.876;2023-08-24T04:44:14;5.75;;;5.13;;
73113;SDS011;61301;51.956;5.876;2023-08-24T04:46:40;5.32;;;3.70;;
73113;SDS011;61301;51.956;5.876;2023-08-24T04:49:05;8.23;;;4.90;;
73113;SDS011;61301;51.956;5.876;2023-08-24T04:51:32;6.05;;;5.45;;
73113;SDS011;61301;51.956;5.876;2023-08-24T04:53:58;7.97;;;4.85;;
73113;SDS011;61301;51.956;5.876;2023-08-24T04:56:24;5.47;;;4.30;;
73113;SDS011;61301;51.956;5.876;2023-08-24T04:58:56;4.88;;;3.50;;
73113;SDS011;61301;51.956;5.876;2023-08-24T05:01:23;9.67;;;6.03;;
73113;SDS011;61301;51.956;5.876;2023-08-24T05:03:51;5.25;;;4.65;;
73113;SDS011;61301;51.956;5.876;2023-08-24T05:06:18;8.77;;;4.80;;
73113;SDS011;61301;51.956;5.876;2023-08-24T05:08:47;7.63;;;6.28;;
73113;SDS011;61301;51.956;5.876;2023-08-24T05:11:24;8.05;;;5.00;;
73113;SDS011;61301;51.956;5.876;2023-08-24T05:13:54;4.30;;;3.70;;
73113;SDS011;61301;51.956;5.876;2023-08-24T05:16:21;5.97;;;4.63;;
73113;SDS011;61301;51.956;5.876;2023-08-24T05:18:47;6.30;;;4.70;;
73113;SDS011;61301;51.956;5.876;2023-08-24T05:21:13;5.18;;;3.80;;
73113;SDS011;61301;51.956;5.876;2023-08-24T05:23:39;6.65;;;5.00;;
73113;SDS011;61301;51.956;5.876;2023-08-24T05:26:06;5.90;;;4.45;;
73113;SDS011;61301;51.956;5.876;2023-08-24T05:28:32;5.28;;;4.50;;
73113;SDS011;61301;51.956;5.876;2023-08-24T05:30:58;5.30;;;3.88;;
73113;SDS011;61301;51.956;5.876;2023-08-24T05:33:24;4.78;;;3.88;;
73113;SDS011;61301;51.956;5.876;2023-08-24T05:35:54;7.85;;;5.07;;
73113;SDS011;61301;51.956;5.876;2023-08-24T05:38:20;4.97;;;3.35;;
73113;SDS011;61301;51.956;5.876;2023-08-24T05:40:49;4.05;;;3.65;;
73113;SDS011;61301;51.956;5.876;2023-08-24T05:43:15;4.63;;;3.75;;
73113;SDS011;61301;51.956;5.876;2023-08-24T05:45:41;4.88;;;2.83;;
73113;SDS011;61301;51.956;5.876;2023-08-24T05:48:10;4.95;;;4.10;;
73113;SDS011;61301;51.956;5.876;2023-08-24T05:50:37;11.13;;;6.50;;
73113;SDS011;61301;51.956;5.876;2023-08-24T05:53:07;7.30;;;5.60;;
73113;SDS011;61301;51.956;5.876;2023-08-24T05:55:33;6.80;;;5.60;;
73113;SDS011;61301;51.956;5.876;2023-08-24T05:57:59;7.28;;;5.35;;
73113;SDS011;61301;51.956;5.876;2023-08-24T06:00:25;6.00;;;5.15;;
73113;SDS011;61301;51.956;5.876;2023-08-24T06:02:51;9.15;;;6.85;;
73113;SDS011;61301;51.956;5.876;2023-08-24T06:05:17;6.57;;;5.45;;
73113;SDS011;61301;51.956;5.876;2023-08-24T06:07:44;7.70;;;6.95;;
73113;SDS011;61301;51.956;5.876;2023-08-24T06:10:11;7.80;;;6.82;;
73113;SDS011;61301;51.956;5.876;2023-08-24T06:12:37;9.05;;;6.32;;
73113;SDS011;61301;51.956;5.876;2023-08-24T06:15:04;8.32;;;6.95;;
73113;SDS011;61301;51.956;5.876;2023-08-24T06:17:33;9.48;;;6.68;;
73113;SDS011;61301;51.956;5.876;2023-08-24T06:20:04;8.75;;;6.75;;
73113;SDS011;61301;51.956;5.876;2023-08-24T06:22:30;9.07;;;7.40;;
73113;SDS011;61301;51.956;5.876;2023-08-24T06:24:56;10.85;;;7.55;;
73113;SDS011;61301;51.956;5.876;2023-08-24T06:27:25;10.60;;;8.60;;
73113;SDS011;61301;51.956;5.876;2023-08-24T06:29:52;10.48;;;8.40;;
73113;SDS011;61301;51.956;5.876;2023-08-24T06:32:18;9.48;;;8.15;;
73113;SDS011;61301;51.956;5.876;2023-08-24T06:34:44;10.50;;;8.95;;
73113;SDS011;61301;51.956;5.876;2023-08-24T06:37:10;9.20;;;8.30;;
73113;SDS011;61301;51.956;5.876;2023-08-24T06:39:36;8.70;;;6.75;;
73113;SDS011;61301;51.956;5.876;2023-08-24T06:42:02;12.85;;;8.65;;
73113;SDS011;61301;51.956;5.876;2023-08-24T06:44:30;14.65;;;10.77;;
73113;SDS011;61301;51.956;5.876;2023-08-24T06:46:56;9.98;;;7.28;;
73113;SDS011;61301;51.956;5.876;2023-08-24T06:49:22;6.90;;;6.20;;
73113;SDS011;61301;51.956;5.876;2023-08-24T06:51:48;9.77;;;6.80;;
73113;SDS011;61301;51.956;5.876;2023-08-24T06:54:14;11.70;;;9.32;;
73113;SDS011;61301;51.956;5.876;2023-08-24T06:56:42;10.60;;;9.00;;
73113;SDS011;61301;51.956;5.876;2023-08-24T06:59:09;9.82;;;7.85;;
73113;SDS011;61301;51.956;5.876;2023-08-24T07:01:36;10.35;;;7.82;;
73113;SDS011;61301;51.956;5.876;2023-08-24T07:04:02;8.55;;;6.72;;
73113;SDS011;61301;51.956;5.876;2023-08-24T07:06:28;10.98;;;8.30;;
73113;SDS011;61301;51.956;5.876;2023-08-24T07:08:54;12.30;;;8.85;;
73113;SDS011;61301;51.956;5.876;2023-08-24T07:11:20;10.38;;;6.40;;
73113;SDS011;61301;51.956;5.876;2023-08-24T07:13:46;9.48;;;6.50;;
73113;SDS011;61301;51.956;5.876;2023-08-24T07:16:14;8.70;;;7.50;;
73113;SDS011;61301;51.956;5.876;2023-08-24T07:18:40;8.95;;;7.47;;
73113;SDS011;61301;51.956;5.876;2023-08-24T07:21:06;11.18;;;7.53;;
73113;SDS011;61301;51.956;5.876;2023-08-24T07:23:31;11.05;;;7.80;;
73113;SDS011;61301;51.956;5.876;2023-08-24T07:25:57;6.20;;;5.55;;
73113;SDS011;61301;51.956;5.876;2023-08-24T07:28:23;10.38;;;7.95;;
73113;SDS011;61301;51.956;5.876;2023-08-24T07:30:50;9.23;;;6.65;;
73113;SDS011;61301;51.956;5.876;2023-08-24T07:33:18;8.10;;;6.97;;
73113;SDS011;61301;51.956;5.876;2023-08-24T07:35:47;7.95;;;6.78;;
73113;SDS011;61301;51.956;5.876;2023-08-24T07:38:13;9.93;;;7.75;;
73113;SDS011;61301;51.956;5.876;2023-08-24T07:40:39;14.10;;;8.73;;
73113;SDS011;61301;51.956;5.876;2023-08-24T07:43:05;10.07;;;6.85;;
73113;SDS011;61301;51.956;5.876;2023-08-24T07:45:31;8.88;;;6.93;;
73113;SDS011;61301;51.956;5.876;2023-08-24T07:47:57;10.88;;;7.35;;
73113;SDS011;61301;51.956;5.876;2023-08-24T07:50:23;7.13;;;5.95;;
73113;SDS011;61301;51.956;5.876;2023-08-24T07:52:49;8.82;;;6.60;;
73113;SDS011;61301;51.956;5.876;2023-08-24T07:55:15;14.50;;;8.48;;
73113;SDS011;61301;51.956;5.876;2023-08-24T07:57:41;8.85;;;7.10;;
73113;SDS011;61301;51.956;5.876;2023-08-24T08:00:07;6.75;;;4.70;;
73113;SDS011;61301;51.956;5.876;2023-08-24T08:02:41;11.48;;;7.72;;
73113;SDS011;61301;51.956;5.876;2023-08-24T08:05:07;9.35;;;6.25;;
73113;SDS011;61301;51.956;5.876;2023-08-24T08:07:34;10.00;;;6.50;;
73113;SDS011;61301;51.956;5.876;2023-08-24T08:10:00;8.20;;;7.20;;
73113;SDS011;61301;51.956;5.876;2023-08-24T08:12:26;9.10;;;6.20;;
73113;SDS011;61301;51.956;5.876;2023-08-24T08:14:52;9.90;;;7.85;;
73113;SDS011;61301;51.956;5.876;2023-08-24T08:17:18;7.05;;;5.57;;
73113;SDS011;61301;51.956;5.876;2023-08-24T08:19:44;9.45;;;7.10;;
73113;SDS011;61301;51.956;5.876;2023-08-24T08:22:12;9.85;;;7.57;;
73113;SDS011;61301;51.956;5.876;2023-08-24T08:24:38;8.52;;;6.35;;
73113;SDS011;61301;51.956;5.876;2023-08-24T08:27:04;7.63;;;6.63;;
73113;SDS011;61301;51.956;5.876;2023-08-24T08:29:30;9.45;;;7.00;;
73113;SDS011;61301;51.956;5.876;2023-08-24T08:31:56;8.70;;;7.43;;
73113;SDS011;61301;51.956;5.876;2023-08-24T08:34:22;9.43;;;6.40;;
73113;SDS011;61301;51.956;5.876;2023-08-24T08:36:48;10.63;;;7.63;;
73113;SDS011;61301;51.956;5.876;2023-08-24T08:39:14;13.60;;;7.53;;
73113;SDS011;61301;51.956;5.876;2023-08-24T08:41:41;9.02;;;5.70;;
73113;SDS011;61301;51.956;5.876;2023-08-24T08:44:10;9.52;;;7.47;;
73113;SDS011;61301;51.956;5.876;2023-08-24T08:46:39;9.02;;;6.47;;
73113;SDS011;61301;51.956;5.876;2023-08-24T08:49:07;9.13;;;7.50;;
73113;SDS011;61301;51.956;5.876;2023-08-24T08:51:35;10.88;;;8.70;;
73113;SDS011;61301;51.956;5.876;2023-08-24T08:54:02;11.20;;;8.15;;
73113;SDS011;61301;51.956;5.876;2023-08-24T08:56:33;15.38;;;9.90;;
73113;SDS011;61301;51.956;5.876;2023-08-24T08:59:00;8.70;;;6.70;;
73113;SDS011;61301;51.956;5.876;2023-08-24T09:01:27;12.10;;;6.72;;
73113;SDS011;61301;51.956;5.876;2023-08-24T09:03:54;11.65;;;7.25;;
73113;SDS011;61301;51.956;5.876;2023-08-24T09:06:20;8.13;;;6.82;;
73113;SDS011;61301;51.956;5.876;2023-08-24T09:08:48;9.02;;;6.40;;
73113;SDS011;61301;51.956;5.876;2023-08-24T09:11:15;12.65;;;7.75;;
73113;SDS011;61301;51.956;5.876;2023-08-24T09:13:43;12.27;;;8.23;;
73113;SDS011;61301;51.956;5.876;2023-08-24T09:16:09;12.45;;;7.53;;
73113;SDS011;61301;51.956;5.876;2023-08-24T09:18:43;8.20;;;6.20;;
73113;SDS011;61301;51.956;5.876;2023-08-24T09:21:13;9.30;;;6.82;;
73113;SDS011;61301;51.956;5.876;2023-08-24T09:23:43;10.88;;;8.55;;
73113;SDS011;61301;51.956;5.876;2023-08-24T09:26:29;11.40;;;6.87;;
73113;SDS011;61301;51.956;5.876;2023-08-24T09:29:14;12.20;;;7.70;;
73113;SDS011;61301;51.956;5.876;2023-08-24T09:31:41;8.95;;;5.35;;
73113;SDS011;61301;51.956;5.876;2023-08-24T09:34:11;9.80;;;6.53;;
73113;SDS011;61301;51.956;5.876;2023-08-24T09:36:37;10.70;;;6.88;;
73113;SDS011;61301;51.956;5.876;2023-08-24T09:39:04;11.43;;;7.80;;
73113;SDS011;61301;51.956;5.876;2023-08-24T09:41:37;12.52;;;7.50;;
73113;SDS011;61301;51.956;5.876;2023-08-24T09:44:04;9.90;;;6.90;;
73113;SDS011;61301;51.956;5.876;2023-08-24T09:46:31;9.73;;;5.95;;
73113;SDS011;61301;51.956;5.876;2023-08-24T09:48:57;12.27;;;6.57;;
73113;SDS011;61301;51.956;5.876;2023-08-24T09:51:26;7.95;;;5.82;;
73113;SDS011;61301;51.956;5.876;2023-08-24T09:53:52;11.05;;;5.47;;
73113;SDS011;61301;51.956;5.876;2023-08-24T09:56:28;9.10;;;5.80;;
73113;SDS011;61301;51.956;5.876;2023-08-24T09:58:54;6.82;;;5.55;;
73113;SDS011;61301;51.956;5.876;2023-08-24T10:01:25;9.05;;;7.20;;
73113;SDS011;61301;51.956;5.876;2023-08-24T10:03:52;10.32;;;5.35;;
73113;SDS011;61301;51.956;5.876;2023-08-24T10:06:19;12.70;;;6.53;;
73113;SDS011;61301;51.956;5.876;2023-08-24T10:08:47;6.97;;;5.78;;
73113;SDS011;61301;51.956;5.876;2023-08-24T10:11:20;8.18;;;5.90;;
73113;SDS011;61301;51.956;5.876;2023-08-24T10:13:53;7.68;;;5.55;;
73113;SDS011;61301;51.956;5.876;2023-08-24T10:16:26;5.90;;;3.97;;
73113;SDS011;61301;51.956;5.876;2023-08-24T10:18:54;8.75;;;4.05;;
73113;SDS011;61301;51.956;5.876;2023-08-24T10:21:21;7.35;;;4.15;;
73113;SDS011;61301;51.956;5.876;2023-08-24T10:23:51;7.88;;;5.22;;
73113;SDS011;61301;51.956;5.876;2023-08-24T10:26:19;10.50;;;5.30;;
73113;SDS011;61301;51.956;5.876;2023-08-24T10:28:46;7.25;;;4.70;;
73113;SDS011;61301;51.956;5.876;2023-08-24T10:31:13;10.35;;;5.18;;
73113;SDS011;61301;51.956;5.876;2023-08-24T10:33:39;10.32;;;5.20;;
73113;SDS011;61301;51.956;5.876;2023-08-24T10:36:06;10.63;;;4.90;;
73113;SDS011;61301;51.956;5.876;2023-08-24T10:38:34;8.15;;;5.03;;
73113;SDS011;61301;51.956;5.876;2023-08-24T10:41:05;8.00;;;5.45;;
73113;SDS011;61301;51.956;5.876;2023-08-24T10:43:36;8.35;;;4.70;;
73113;SDS011;61301;51.956;5.876;2023-08-24T10:46:03;8.40;;;5.13;;
73113;SDS011;61301;51.956;5.876;2023-08-24T10:49:18;6.90;;;4.07;;
73113;SDS011;61301;51.956;5.876;2023-08-24T10:53:52;7.28;;;4.40;;
73113;SDS011;61301;51.956;5.876;2023-08-24T10:56:19;6.57;;;4.45;;
73113;SDS011;61301;51.956;5.876;2023-08-24T10:58:46;8.20;;;5.32;;
73113;SDS011;61301;51.956;5.876;2023-08-24T11:01:16;6.07;;;3.35;;
73113;SDS011;61301;51.956;5.876;2023-08-24T11:03:49;7.25;;;4.97;;
73113;SDS011;61301;51.956;5.876;2023-08-24T11:06:24;10.82;;;5.68;;
73113;SDS011;61301;51.956;5.876;2023-08-24T11:09:07;8.60;;;5.00;;
73113;SDS011;61301;51.956;5.876;2023-08-24T11:11:40;10.18;;;5.38;;
73113;SDS011;61301;51.956;5.876;2023-08-24T11:16:44;6.85;;;3.95;;
73113;SDS011;61301;51.956;5.876;2023-08-24T11:19:11;10.65;;;4.22;;
73113;SDS011;61301;51.956;5.876;2023-08-24T11:21:42;18.65;;;7.72;;
73113;SDS011;61301;51.956;5.876;2023-08-24T11:24:09;11.48;;;6.05;;
73113;SDS011;61301;51.956;5.876;2023-08-24T11:26:41;9.07;;;6.50;;
73113;SDS011;61301;51.956;5.876;2023-08-24T11:29:08;6.63;;;3.83;;
73113;SDS011;61301;51.956;5.876;2023-08-24T11:31:35;7.70;;;5.32;;
73113;SDS011;61301;51.956;5.876;2023-08-24T11:34:02;8.75;;;5.82;;
73113;SDS011;61301;51.956;5.876;2023-08-24T11:36:30;6.45;;;3.95;;
73113;SDS011;61301;51.956;5.876;2023-08-24T11:38:57;11.45;;;5.60;;
73113;SDS011;61301;51.956;5.876;2023-08-24T11:41:25;9.15;;;4.65;;
73113;SDS011;61301;51.956;5.876;2023-08-24T11:43:58;12.57;;;5.50;;
73113;SDS011;61301;51.956;5.876;2023-08-24T11:46:25;8.82;;;4.85;;
73113;SDS011;61301;51.956;5.876;2023-08-24T11:48:54;8.43;;;5.20;;
73113;SDS011;61301;51.956;5.876;2023-08-24T11:51:20;8.88;;;5.47;;
73113;SDS011;61301;51.956;5.876;2023-08-24T11:53:46;5.13;;;3.92;;
73113;SDS011;61301;51.956;5.876;2023-08-24T11:56:13;5.95;;;4.22;;
73113;SDS011;61301;51.956;5.876;2023-08-24T11:58:40;6.32;;;4.03;;
73113;SDS011;61301;51.956;5.876;2023-08-24T12:01:10;7.68;;;4.10;;
73113;SDS011;61301;51.956;5.876;2023-08-24T12:03:39;8.93;;;4.82;;
73113;SDS011;61301;51.956;5.876;2023-08-24T12:06:26;6.45;;;4.18;;
73113;SDS011;61301;51.956;5.876;2023-08-24T12:08:53;10.75;;;6.50;;
73113;SDS011;61301;51.956;5.876;2023-08-24T12:11:21;11.15;;;5.80;;
73113;SDS011;61301;51.956;5.876;2023-08-24T12:13:51;8.63;;;5.65;;
73113;SDS011;61301;51.956;5.876;2023-08-24T12:16:18;10.73;;;6.07;;
73113;SDS011;61301;51.956;5.876;2023-08-24T12:18:51;8.73;;;4.50;;
73113;SDS011;61301;51.956;5.876;2023-08-24T12:21:17;9.93;;;5.88;;
73113;SDS011;61301;51.956;5.876;2023-08-24T12:23:54;8.05;;;5.15;;
73113;SDS011;61301;51.956;5.876;2023-08-24T12:26:31;8.35;;;4.30;;
73113;SDS011;61301;51.956;5.876;2023-08-24T12:29:03;8.32;;;4.65;;
73113;SDS011;61301;51.956;5.876;2023-08-24T12:31:31;6.53;;;4.50;;
73113;SDS011;61301;51.956;5.876;2023-08-24T12:34:04;7.15;;;4.32;;
73113;SDS011;61301;51.956;5.876;2023-08-24T12:36:31;8.95;;;5.20;;
73113;SDS011;61301;51.956;5.876;2023-08-24T12:38:58;8.00;;;4.57;;
73113;SDS011;61301;51.956;5.876;2023-08-24T12:41:25;11.00;;;4.75;;
73113;SDS011;61301;51.956;5.876;2023-08-24T12:43:51;6.93;;;3.83;;
73113;SDS011;61301;51.956;5.876;2023-08-24T12:46:18;4.70;;;3.53;;
73113;SDS011;61301;51.956;5.876;2023-08-24T12:48:44;4.22;;;2.75;;
73113;SDS011;61301;51.956;5.876;2023-08-24T12:51:10;7.07;;;4.30;;
73113;SDS011;61301;51.956;5.876;2023-08-24T12:53:36;4.15;;;3.20;;
73113;SDS011;61301;51.956;5.876;2023-08-24T12:56:02;5.80;;;3.33;;
73113;SDS011;61301;51.956;5.876;2023-08-24T12:58:29;6.43;;;4.20;;
73113;SDS011;61301;51.956;5.876;2023-08-24T13:00:55;8.57;;;4.18;;
73113;SDS011;61301;51.956;5.876;2023-08-24T13:03:21;10.85;;;4.97;;
73113;SDS011;61301;51.956;5.876;2023-08-24T13:05:47;7.18;;;4.50;;
73113;SDS011;61301;51.956;5.876;2023-08-24T13:08:13;7.97;;;5.13;;
73113;SDS011;61301;51.956;5.876;2023-08-24T13:10:39;7.78;;;5.28;;
73113;SDS011;61301;51.956;5.876;2023-08-24T13:13:05;12.73;;;5.30;;
73113;SDS011;61301;51.956;5.876;2023-08-24T13:15:31;7.28;;;4.60;;
73113;SDS011;61301;51.956;5.876;2023-08-24T13:17:57;6.07;;;4.55;;
73113;SDS011;61301;51.956;5.876;2023-08-24T13:20:24;6.15;;;3.80;;
73113;SDS011;61301;51.956;5.876;2023-08-24T13:22:52;8.35;;;4.30;;
73113;SDS011;61301;51.956;5.876;2023-08-24T13:25:18;5.32;;;4.25;;
73113;SDS011;61301;51.956;5.876;2023-08-24T13:27:44;6.30;;;4.10;;
73113;SDS011;61301;51.956;5.876;2023-08-24T13:30:10;5.95;;;4.18;;
73113;SDS011;61301;51.956;5.876;2023-08-24T13:32:38;8.60;;;5.07;;
73113;SDS011;61301;51.956;5.876;2023-08-24T13:35:04;10.65;;;5.88;;
73113;SDS011;61301;51.956;5.876;2023-08-24T13:37:31;9.02;;;4.22;;
73113;SDS011;61301;51.956;5.876;2023-08-24T13:39:58;8.05;;;3.90;;
73113;SDS011;61301;51.956;5.876;2023-08-24T13:42:24;7.20;;;3.80;;
73113;SDS011;61301;51.956;5.876;2023-08-24T13:44:50;6.38;;;4.13;;
73113;SDS011;61301;51.956;5.876;2023-08-24T13:47:16;6.78;;;4.30;;
73113;SDS011;61301;51.956;5.876;2023-08-24T13:49:42;8.48;;;3.97;;
73113;SDS011;61301;51.956;5.876;2023-08-24T13:52:08;5.78;;;3.75;;
73113;SDS011;61301;51.956;5.876;2023-08-24T13:54:34;10.60;;;4.60;;
73113;SDS011;61301;51.956;5.876;2023-08-24T13:57:00;4.70;;;3.60;;
73113;SDS011;61301;51.956;5.876;2023-08-24T13:59:27;7.78;;;3.80;;
73113;SDS011;61301;51.956;5.876;2023-08-24T14:01:53;4.40;;;3.70;;
73113;SDS011;61301;51.956;5.876;2023-08-24T14:04:19;5.38;;;4.10;;
73113;SDS011;61301;51.956;5.876;2023-08-24T14:06:45;6.50;;;3.38;;
73113;SDS011;61301;51.956;5.876;2023-08-24T14:09:13;7.38;;;4.35;;
73113;SDS011;61301;51.956;5.876;2023-08-24T14:11:39;7.15;;;4.00;;
73113;SDS011;61301;51.956;5.876;2023-08-24T14:14:05;6.95;;;4.10;;
73113;SDS011;61301;51.956;5.876;2023-08-24T14:16:31;8.25;;;3.45;;
73113;SDS011;61301;51.956;5.876;2023-08-24T14:18:57;10.02;;;4.00;;
73113;SDS011;61301;51.956;5.876;2023-08-24T14:21:23;7.97;;;3.90;;
73113;SDS011;61301;51.956;5.876;2023-08-24T14:23:49;6.15;;;3.33;;
73113;SDS011;61301;51.956;5.876;2023-08-24T14:26:21;6.70;;;3.83;;
73113;SDS011;61301;51.956;5.876;2023-08-24T14:28:53;6.35;;;3.88;;
73113;SDS011;61301;51.956;5.876;2023-08-24T14:31:23;5.80;;;4.10;;
73113;SDS011;61301;51.956;5.876;2023-08-24T14:33:51;6.85;;;3.55;;
73113;SDS011;61301;51.956;5.876;2023-08-24T14:36:17;6.75;;;3.70;;
73113;SDS011;61301;51.956;5.876;2023-08-24T14:38:44;7.80;;;4.07;;
73113;SDS011;61301;51.956;5.876;2023-08-24T14:41:10;5.43;;;3.10;;
73113;SDS011;61301;51.956;5.876;2023-08-24T14:43:38;5.30;;;3.15;;
73113;SDS011;61301;51.956;5.876;2023-08-24T14:46:05;3.97;;;3.28;;
73113;SDS011;61301;51.956;5.876;2023-08-24T14:48:31;6.25;;;3.53;;
73113;SDS011;61301;51.956;5.876;2023-08-24T14:50:58;4.22;;;2.70;;
73113;SDS011;61301;51.956;5.876;2023-08-24T14:53:24;5.00;;;2.95;;
73113;SDS011;61301;51.956;5.876;2023-08-24T14:55:52;5.70;;;3.20;;
73113;SDS011;61301;51.956;5.876;2023-08-24T14:58:20;4.70;;;2.97;;